createdAt,value
2023-03-06T00:00:24.463Z,45.17
2023-03-06T00:02:52.209Z,45.03
2023-03-06T00:05:19.803Z,45.03
2023-03-06T00:07:46.180Z,44.76
2023-03-06T00:10:18.855Z,45.67
2023-03-06T00:12:45.414Z,45.20
2023-03-06T00:15:12.385Z,45.56
2023-03-06T00:17:39.446Z,45.41
2023-03-06T00:20:07.255Z,45.39
2023-03-06T00:22:33.634Z,45.32
2023-03-06T00:24:59.952Z,45.55
2023-03-06T00:27:26.402Z,45.64
2023-03-06T00:29:57.263Z,45.82
2023-03-06T00:32:24.330Z,45.62
2023-03-06T00:34:54.742Z,45.92
2023-03-06T00:37:22.412Z,45.61
2023-03-06T00:39:49.537Z,45.12
2023-03-06T00:42:17.891Z,45.40
2023-03-06T00:44:44.302Z,45.44
2023-03-06T00:47:11.530Z,45.33
2023-03-06T00:49:38.524Z,45.48
2023-03-06T00:52:05.773Z,45.91
2023-03-06T00:54:32.178Z,45.50
2023-03-06T00:56:58.815Z,45.79
2023-03-06T00:59:25.417Z,45.82
2023-03-06T01:01:52.025Z,45.99
2023-03-06T01:04:18.436Z,45.99
2023-03-06T01:06:44.819Z,45.85
2023-03-06T01:09:11.547Z,45.95
2023-03-06T01:11:37.915Z,45.66
2023-03-06T01:14:04.313Z,45.70
2023-03-06T01:16:31.082Z,45.98
2023-03-06T01:18:58.158Z,45.99
2023-03-06T01:21:24.737Z,45.90
2023-03-06T01:23:51.651Z,45.90
2023-03-06T01:26:18.304Z,45.91
2023-03-06T01:28:44.888Z,45.81
2023-03-06T01:31:11.247Z,46.05
2023-03-06T01:33:38.058Z,46.14
2023-03-06T01:36:07.516Z,46.24
2023-03-06T01:38:35.464Z,45.90
2023-03-06T01:41:04.131Z,46.15
2023-03-06T01:43:34.803Z,45.94
2023-03-06T01:46:23.056Z,46.56
2023-03-06T01:48:52.387Z,46.49
2023-03-06T01:51:18.960Z,46.34
2023-03-06T01:53:46.209Z,46.33
2023-03-06T01:56:13.461Z,46.03
2023-03-06T01:58:40.464Z,46.04
2023-03-06T02:01:06.801Z,45.73
2023-03-06T02:03:33.621Z,45.75
2023-03-06T02:05:59.872Z,45.78
2023-03-06T02:08:26.594Z,45.44
2023-03-06T02:10:58.424Z,45.62
2023-03-06T02:13:25.040Z,45.60
2023-03-06T02:15:51.322Z,45.47
2023-03-06T02:18:17.653Z,45.10
2023-03-06T02:20:46.244Z,44.93
2023-03-06T02:23:31.228Z,45.31
2023-03-06T02:25:58.533Z,45.03
2023-03-06T02:28:25.134Z,45.21
2023-03-06T02:30:52.998Z,44.80
2023-03-06T02:33:21.569Z,45.08
2023-03-06T02:35:54.582Z,44.98
2023-03-06T02:38:22.271Z,45.24
2023-03-06T02:40:49.742Z,44.93
2023-03-06T02:43:18.540Z,45.02
2023-03-06T02:45:47.565Z,45.12
2023-03-06T02:48:14.947Z,44.88
2023-03-06T02:50:42.024Z,45.03
2023-03-06T02:53:09.016Z,44.77
2023-03-06T02:55:36.010Z,44.99
2023-03-06T02:58:02.669Z,44.82
2023-03-06T03:00:29.334Z,44.83
2023-03-06T03:02:55.940Z,44.69
2023-03-06T03:05:22.216Z,44.64
2023-03-06T03:07:48.596Z,44.78
2023-03-06T03:10:14.918Z,44.63
2023-03-06T03:12:41.358Z,44.73
2023-03-06T03:15:08.066Z,44.54
2023-03-06T03:17:37.841Z,44.59
2023-03-06T03:20:05.658Z,44.55
2023-03-06T03:22:32.119Z,44.56
2023-03-06T03:24:58.391Z,45.00
2023-03-06T03:27:24.665Z,44.65
2023-03-06T03:29:50.983Z,44.78
2023-03-06T03:32:17.295Z,44.61
2023-03-06T03:34:43.819Z,44.74
2023-03-06T03:37:10.309Z,44.57
2023-03-06T03:39:36.544Z,44.67
2023-03-06T03:42:02.880Z,44.43
2023-03-06T03:44:29.098Z,44.52
2023-03-06T03:46:55.579Z,44.51
2023-03-06T03:49:21.960Z,44.56
2023-03-06T03:51:48.278Z,44.03
2023-03-06T03:54:14.781Z,44.52
2023-03-06T03:56:41.666Z,44.82
2023-03-06T03:59:08.241Z,44.51
2023-03-06T04:01:34.540Z,44.49
2023-03-06T04:04:01.065Z,44.52
2023-03-06T04:06:27.645Z,44.50
2023-03-06T04:08:53.936Z,44.42
2023-03-06T04:11:20.865Z,44.27
2023-03-06T04:13:47.086Z,44.44
2023-03-06T04:16:13.383Z,44.42
2023-03-06T04:18:39.707Z,44.42
2023-03-06T04:21:06.432Z,44.83
2023-03-06T04:23:32.822Z,44.63
2023-03-06T04:25:59.192Z,44.63
2023-03-06T04:28:25.836Z,44.70
2023-03-06T04:30:52.304Z,44.57
2023-03-06T04:33:18.720Z,45.01
2023-03-06T04:35:45.141Z,44.55
2023-03-06T04:38:11.546Z,44.71
2023-03-06T04:40:38.045Z,44.51
2023-03-06T04:43:04.453Z,44.65
2023-03-06T04:45:31.428Z,44.83
2023-03-06T04:47:58.018Z,44.69
2023-03-06T04:50:25.007Z,44.67
2023-03-06T04:52:51.770Z,44.60
2023-03-06T04:55:18.485Z,44.82
2023-03-06T04:57:45.721Z,44.55
2023-03-06T05:00:14.158Z,44.55
2023-03-06T05:02:41.967Z,44.60
2023-03-06T05:05:08.605Z,44.78
2023-03-06T05:07:35.085Z,44.86
2023-03-06T05:10:01.332Z,44.42
2023-03-06T05:12:27.572Z,44.31
2023-03-06T05:14:53.910Z,44.37
2023-03-06T05:17:20.166Z,44.29
2023-03-06T05:19:46.642Z,44.67
2023-03-06T05:22:13.161Z,44.49
2023-03-06T05:24:39.636Z,44.20
2023-03-06T05:27:06.220Z,44.53
2023-03-06T05:29:32.503Z,44.61
2023-03-06T05:31:58.893Z,44.18
2023-03-06T05:34:25.184Z,44.53
2023-03-06T05:36:51.472Z,44.05
2023-03-06T05:39:17.763Z,44.13
2023-03-06T05:41:44.051Z,44.50
2023-03-06T05:44:10.504Z,44.21
2023-03-06T05:46:38.056Z,44.34
2023-03-06T05:49:04.296Z,44.03
2023-03-06T05:51:30.801Z,44.34
2023-03-06T05:53:57.265Z,44.63
2023-03-06T05:56:23.631Z,44.52
2023-03-06T05:58:50.852Z,44.44
2023-03-06T06:01:19.019Z,44.69
2023-03-06T06:03:45.790Z,44.18
2023-03-06T06:06:13.172Z,44.50
2023-03-06T06:08:39.502Z,44.56
2023-03-06T06:11:06.770Z,44.15
2023-03-06T06:13:33.444Z,44.15
2023-03-06T06:16:00.058Z,44.41
2023-03-06T06:18:26.446Z,44.00
2023-03-06T06:20:55.568Z,44.40
2023-03-06T06:23:22.183Z,44.34
2023-03-06T06:25:48.659Z,43.99
2023-03-06T06:28:14.957Z,43.88
2023-03-06T06:30:41.655Z,44.55
2023-03-06T06:33:07.930Z,44.16
2023-03-06T06:35:37.609Z,44.44
2023-03-06T06:38:03.920Z,44.16
2023-03-06T06:40:30.243Z,44.46
2023-03-06T06:42:56.500Z,44.65
2023-03-06T06:45:22.827Z,44.54
2023-03-06T06:47:50.161Z,44.36
2023-03-06T06:50:16.563Z,44.54
2023-03-06T06:52:43.089Z,44.39
2023-03-06T06:55:09.834Z,44.28
2023-03-06T06:57:36.305Z,44.18
2023-03-06T07:00:03.679Z,44.57
2023-03-06T07:02:30.091Z,44.31
2023-03-06T07:05:04.280Z,44.61
2023-03-06T07:07:33.075Z,44.06
2023-03-06T07:09:59.326Z,44.16
2023-03-06T07:12:25.565Z,44.27
2023-03-06T07:14:51.840Z,44.69
2023-03-06T07:17:18.411Z,44.46
2023-03-06T07:19:44.646Z,44.34
2023-03-06T07:22:11.245Z,44.64
2023-03-06T07:24:37.492Z,44.55
2023-03-06T07:27:03.825Z,44.54
2023-03-06T07:29:32.190Z,44.28
2023-03-06T07:31:58.891Z,44.19
2023-03-06T07:34:25.150Z,44.51
2023-03-06T07:36:51.634Z,44.29
2023-03-06T07:39:18.248Z,44.16
2023-03-06T07:41:44.739Z,44.61
2023-03-06T07:44:11.017Z,44.23
2023-03-06T07:46:37.413Z,44.44
2023-03-06T07:49:03.715Z,44.28
2023-03-06T07:51:29.982Z,44.12
2023-03-06T07:53:56.266Z,44.30
2023-03-06T07:56:22.626Z,44.30
2023-03-06T07:58:48.980Z,44.29
2023-03-06T08:01:16.571Z,44.04
2023-03-06T08:03:43.380Z,44.52
2023-03-06T08:06:14.059Z,44.27
2023-03-06T08:08:41.557Z,44.21
2023-03-06T08:11:08.767Z,44.25
2023-03-06T08:13:36.552Z,44.26
2023-03-06T08:16:02.890Z,44.35
2023-03-06T08:18:29.308Z,44.31
2023-03-06T08:21:02.991Z,44.32
2023-03-06T08:23:29.672Z,44.32
2023-03-06T08:25:59.646Z,44.48
2023-03-06T08:28:26.141Z,44.24
2023-03-06T08:30:52.461Z,44.42
2023-03-06T08:33:18.799Z,44.25
2023-03-06T08:35:45.264Z,44.01
2023-03-06T08:38:11.512Z,44.01
2023-03-06T08:40:38.003Z,44.02
2023-03-06T08:43:04.286Z,43.81
2023-03-06T08:45:30.608Z,44.07
2023-03-06T08:47:56.919Z,44.34
2023-03-06T08:50:23.166Z,44.28
2023-03-06T08:52:49.500Z,44.20
2023-03-06T08:55:15.797Z,44.03
2023-03-06T08:57:42.054Z,44.25
2023-03-06T09:00:08.974Z,44.27
2023-03-06T09:02:35.286Z,44.59
2023-03-06T09:05:03.868Z,44.02
2023-03-06T09:07:30.185Z,44.06
2023-03-06T09:09:57.685Z,44.41
2023-03-06T09:12:24.322Z,44.06
2023-03-06T09:14:50.649Z,44.33
2023-03-06T09:17:16.919Z,44.38
2023-03-06T09:19:43.876Z,44.27
2023-03-06T09:22:10.224Z,44.37
2023-03-06T09:24:36.746Z,44.29
2023-03-06T09:27:03.274Z,44.34
2023-03-06T09:29:29.523Z,44.42
2023-03-06T09:31:55.982Z,44.34
2023-03-06T09:34:22.518Z,44.49
2023-03-06T09:36:56.424Z,44.74
2023-03-06T09:39:24.075Z,44.55
2023-03-06T09:41:50.822Z,44.80
2023-03-06T09:44:20.029Z,44.69
2023-03-06T09:46:46.476Z,44.41
2023-03-06T09:49:15.470Z,44.61
2023-03-06T09:51:56.424Z,44.65
2023-03-06T09:54:49.013Z,44.82
2023-03-06T09:57:29.854Z,44.79
2023-03-06T10:00:02.052Z,44.60
2023-03-06T10:02:38.259Z,44.73
2023-03-06T10:05:07.222Z,44.41
2023-03-06T10:07:41.391Z,44.52
2023-03-06T10:10:15.105Z,44.43
2023-03-06T10:12:45.306Z,44.42
2023-03-06T10:15:35.934Z,44.76
2023-03-06T10:18:03.116Z,44.71
2023-03-06T10:20:36.488Z,44.75
2023-03-06T10:23:09.989Z,44.75
2023-03-06T10:25:56.533Z,44.48
2023-03-06T10:28:27.723Z,44.51
2023-03-06T10:31:13.743Z,44.50
2023-03-06T10:33:40.039Z,44.67
2023-03-06T10:36:06.369Z,44.56
2023-03-06T10:38:32.582Z,44.84
2023-03-06T10:41:11.198Z,44.42
2023-03-06T10:43:55.923Z,44.55
2023-03-06T10:46:35.556Z,45.12
2023-03-06T10:49:07.321Z,44.62
2023-03-06T10:51:35.450Z,44.86
2023-03-06T10:54:03.292Z,44.64
2023-03-06T10:56:32.990Z,44.72
2023-03-06T10:59:05.252Z,44.46
2023-03-06T11:01:31.582Z,44.68
2023-03-06T11:04:16.824Z,44.41
2023-03-06T11:06:43.406Z,44.63
2023-03-06T11:09:18.926Z,44.53
2023-03-06T11:11:45.412Z,44.75
2023-03-06T11:14:16.578Z,44.76
2023-03-06T11:16:52.613Z,44.50
2023-03-06T11:19:27.233Z,44.67
2023-03-06T11:22:04.897Z,44.72
2023-03-06T11:24:39.297Z,44.43
2023-03-06T11:27:17.025Z,44.19
2023-03-06T11:29:48.443Z,44.30
2023-03-06T11:32:23.024Z,44.37
2023-03-06T11:34:54.560Z,44.46
2023-03-06T11:37:24.803Z,44.14
2023-03-06T11:40:00.100Z,44.19
2023-03-06T11:42:28.249Z,44.05
2023-03-06T11:44:54.698Z,44.26
2023-03-06T11:47:28.497Z,44.00
2023-03-06T11:50:30.322Z,44.27
2023-03-06T11:52:58.803Z,44.38
2023-03-06T11:55:27.848Z,44.50
2023-03-06T11:58:06.439Z,44.33
2023-03-06T12:00:47.891Z,44.37
2023-03-06T12:03:31.216Z,44.30
2023-03-06T12:06:19.931Z,44.55
2023-03-06T12:08:48.979Z,44.59
2023-03-06T12:11:31.633Z,44.66
2023-03-06T12:14:19.732Z,44.26
2023-03-06T12:16:45.981Z,44.49
2023-03-06T12:19:15.012Z,44.63
2023-03-06T12:21:53.472Z,44.18
2023-03-06T12:24:29.314Z,44.74
2023-03-06T12:27:04.747Z,44.81
2023-03-06T12:29:46.542Z,44.77
2023-03-06T12:32:16.820Z,44.25
2023-03-06T12:34:49.157Z,44.62
2023-03-06T12:37:30.685Z,44.06
2023-03-06T12:40:12.222Z,43.93
2023-03-06T12:43:03.228Z,44.14
2023-03-06T12:45:31.247Z,43.86
2023-03-06T12:47:58.032Z,44.37
2023-03-06T12:50:26.359Z,44.49
2023-03-06T12:52:54.758Z,43.99
2023-03-06T12:55:24.952Z,43.61
2023-03-06T12:57:52.668Z,43.51
2023-03-06T13:00:34.222Z,43.74
2023-03-06T13:03:06.598Z,43.26
2023-03-06T13:05:51.510Z,43.44
2023-03-06T13:08:35.025Z,42.99
2023-03-06T13:11:19.447Z,43.70
2023-03-06T13:13:47.010Z,43.09
2023-03-06T13:16:13.348Z,43.37
2023-03-06T13:18:46.808Z,43.20
2023-03-06T13:21:31.888Z,42.82
2023-03-06T13:24:05.650Z,43.08
2023-03-06T13:26:32.951Z,43.16
2023-03-06T13:28:59.250Z,43.65
2023-03-06T13:31:27.940Z,43.45
2023-03-06T13:34:01.607Z,43.17
2023-03-06T13:36:29.857Z,43.50
2023-03-06T13:38:59.125Z,43.08
2023-03-06T13:41:31.401Z,43.31
2023-03-06T13:43:58.941Z,43.01
2023-03-06T13:46:31.406Z,43.57
2023-03-06T13:49:03.741Z,43.18
2023-03-06T13:51:33.395Z,43.69
2023-03-06T13:54:05.650Z,44.11
2023-03-06T13:56:44.081Z,43.57
2023-03-06T13:59:11.490Z,43.64
2023-03-06T14:01:42.165Z,43.93
2023-03-06T14:04:17.538Z,43.62
2023-03-06T14:06:46.751Z,43.45
2023-03-06T14:09:25.230Z,44.12
2023-03-06T14:11:57.957Z,43.49
2023-03-06T14:14:31.772Z,43.89
2023-03-06T14:16:58.478Z,43.69
2023-03-06T14:19:24.703Z,43.76
2023-03-06T14:21:55.526Z,43.79
2023-03-06T14:24:29.124Z,43.51
2023-03-06T14:26:55.530Z,42.98
2023-03-06T14:29:23.640Z,42.92
2023-03-06T14:31:54.453Z,43.24
2023-03-06T14:34:22.405Z,42.93
2023-03-06T14:36:50.011Z,43.66
2023-03-06T14:39:36.572Z,43.13
2023-03-06T14:42:09.156Z,43.17
2023-03-06T14:44:35.405Z,43.73
2023-03-06T14:47:21.448Z,43.31
2023-03-06T14:49:48.048Z,43.53
2023-03-06T14:52:19.358Z,43.78
2023-03-06T14:54:46.417Z,43.05
2023-03-06T14:57:14.478Z,43.66
2023-03-06T14:59:47.333Z,42.89
2023-03-06T15:02:18.187Z,42.85
2023-03-06T15:04:46.657Z,42.53
2023-03-06T15:07:15.007Z,42.85
2023-03-06T15:09:44.795Z,43.12
2023-03-06T15:12:13.843Z,42.81
2023-03-06T15:14:41.799Z,42.76
2023-03-06T15:17:32.138Z,43.23
2023-03-06T15:19:59.467Z,43.07
2023-03-06T15:22:38.782Z,42.75
2023-03-06T15:25:19.664Z,42.70
2023-03-06T15:27:49.978Z,42.68
2023-03-06T15:30:26.202Z,42.99
2023-03-06T15:33:07.738Z,42.69
2023-03-06T15:35:37.313Z,42.11
2023-03-06T15:38:22.584Z,42.74
2023-03-06T15:40:56.849Z,42.53
2023-03-06T15:43:23.157Z,42.42
2023-03-06T15:45:49.595Z,42.39
2023-03-06T15:48:17.654Z,41.82
2023-03-06T15:50:44.423Z,41.80
2023-03-06T15:53:10.937Z,42.18
2023-03-06T15:55:37.278Z,41.97
2023-03-06T15:58:04.789Z,42.08
2023-03-06T16:00:34.043Z,41.76
2023-03-06T16:03:01.369Z,41.16
2023-03-06T16:05:28.294Z,41.42
2023-03-06T16:07:55.096Z,41.42
2023-03-06T16:10:23.405Z,41.74
2023-03-06T16:12:51.368Z,41.13
2023-03-06T16:15:19.471Z,41.94
2023-03-06T16:17:46.340Z,41.92
2023-03-06T16:20:17.661Z,41.51
2023-03-06T16:22:44.711Z,41.70
2023-03-06T16:25:11.043Z,41.08
2023-03-06T16:27:37.409Z,40.83
2023-03-06T16:30:04.932Z,41.99
2023-03-06T16:32:31.485Z,40.77
2023-03-06T16:34:57.751Z,40.96
2023-03-06T16:37:24.267Z,41.12
2023-03-06T16:39:50.701Z,41.10
2023-03-06T16:42:17.838Z,41.18
2023-03-06T16:44:44.137Z,41.45
2023-03-06T16:47:12.298Z,40.94
2023-03-06T16:49:38.827Z,40.98
2023-03-06T16:52:05.460Z,40.99
2023-03-06T16:54:32.130Z,41.34
2023-03-06T16:56:58.545Z,40.63
2023-03-06T16:59:25.173Z,40.18
2023-03-06T17:01:51.707Z,41.05
2023-03-06T17:04:18.177Z,41.32
2023-03-06T17:06:44.437Z,40.93
2023-03-06T17:09:11.188Z,41.40
2023-03-06T17:11:38.675Z,40.94
2023-03-06T17:14:06.266Z,41.70
2023-03-06T17:16:32.606Z,41.40
2023-03-06T17:18:59.787Z,41.25
2023-03-06T17:21:26.934Z,41.59
2023-03-06T17:23:53.419Z,41.89
2023-03-06T17:26:19.729Z,41.50
2023-03-06T17:28:46.705Z,41.88
2023-03-06T17:31:16.047Z,41.81
2023-03-06T17:33:42.769Z,41.81
2023-03-06T17:36:09.278Z,41.79
2023-03-06T17:38:35.662Z,41.93
2023-03-06T17:41:06.119Z,41.86
2023-03-06T17:43:32.819Z,42.59
2023-03-06T17:46:12.781Z,42.46
2023-03-06T17:48:39.543Z,42.14
2023-03-06T17:51:06.269Z,42.12
2023-03-06T17:53:32.841Z,41.72
2023-03-06T17:55:59.185Z,41.81
2023-03-06T17:58:26.197Z,41.78
2023-03-06T18:00:52.638Z,42.21
2023-03-06T18:03:19.082Z,42.06
2023-03-06T18:05:45.572Z,42.21
2023-03-06T18:08:12.062Z,41.76
2023-03-06T18:10:39.953Z,42.45
2023-03-06T18:13:06.554Z,42.44
2023-03-06T18:15:32.872Z,42.23
2023-03-06T18:17:59.195Z,41.86
2023-03-06T18:20:26.136Z,42.83
2023-03-06T18:22:52.653Z,42.60
2023-03-06T18:25:18.986Z,42.22
2023-03-06T18:27:45.439Z,42.19
2023-03-06T18:30:12.079Z,42.27
2023-03-06T18:32:38.593Z,42.27
2023-03-06T18:35:05.123Z,42.15
2023-03-06T18:37:31.696Z,42.40
2023-03-06T18:39:58.205Z,42.15
2023-03-06T18:42:24.582Z,42.48
2023-03-06T18:44:50.840Z,42.39
2023-03-06T18:47:17.201Z,42.05
2023-03-06T18:49:45.138Z,42.32
2023-03-06T18:52:12.243Z,42.80
2023-03-06T18:54:38.800Z,42.26
2023-03-06T18:57:05.394Z,42.74
2023-03-06T18:59:31.827Z,42.89
2023-03-06T19:01:58.470Z,42.59
2023-03-06T19:04:25.830Z,42.76
2023-03-06T19:06:52.139Z,42.44
2023-03-06T19:09:18.422Z,42.52
2023-03-06T19:11:46.761Z,42.31
2023-03-06T19:14:14.063Z,42.23
2023-03-06T19:16:40.736Z,42.87
2023-03-06T19:19:07.073Z,43.05
2023-03-06T19:21:33.540Z,42.40
2023-03-06T19:24:01.352Z,42.45
2023-03-06T19:26:28.291Z,42.57
2023-03-06T19:28:54.569Z,43.02
2023-03-06T19:31:24.787Z,42.92
2023-03-06T19:33:53.201Z,43.02
2023-03-06T19:36:20.563Z,42.83
2023-03-06T19:38:52.408Z,42.61
2023-03-06T19:41:18.675Z,42.88
2023-03-06T19:43:48.713Z,42.55
2023-03-06T19:46:15.037Z,42.54
2023-03-06T19:48:42.193Z,43.13
2023-03-06T19:51:09.617Z,42.82
2023-03-06T19:53:36.238Z,43.01
2023-03-06T19:56:07.341Z,43.19
2023-03-06T19:58:33.973Z,43.18
2023-03-06T20:01:04.925Z,42.51
2023-03-06T20:03:31.382Z,43.08
2023-03-06T20:05:57.619Z,43.13
2023-03-06T20:08:23.968Z,43.08
2023-03-06T20:10:50.478Z,42.82
2023-03-06T20:13:16.725Z,42.83
2023-03-06T20:15:43.042Z,42.92
2023-03-06T20:18:09.424Z,42.87
2023-03-06T20:20:37.681Z,42.72
2023-03-06T20:23:04.579Z,42.94
2023-03-06T20:25:31.047Z,42.84
2023-03-06T20:27:57.401Z,42.51
2023-03-06T20:30:24.322Z,42.96
2023-03-06T20:32:51.596Z,43.04
2023-03-06T20:35:18.193Z,43.10
2023-03-06T20:37:44.599Z,43.17
2023-03-06T20:40:11.323Z,43.12
2023-03-06T20:42:37.687Z,43.05
2023-03-06T20:45:04.129Z,43.02
2023-03-06T20:47:30.369Z,42.92
2023-03-06T20:49:56.581Z,43.16
2023-03-06T20:52:22.840Z,43.05
2023-03-06T20:54:49.264Z,42.75
2023-03-06T20:57:15.826Z,42.87
2023-03-06T20:59:42.074Z,42.85
2023-03-06T21:02:09.601Z,42.95
2023-03-06T21:04:38.558Z,43.26
2023-03-06T21:07:04.832Z,43.34
2023-03-06T21:09:32.751Z,43.15
2023-03-06T21:11:59.249Z,43.31
2023-03-06T21:14:25.716Z,43.05
2023-03-06T21:16:52.051Z,43.25
2023-03-06T21:19:19.226Z,43.13
2023-03-06T21:21:45.712Z,43.35
2023-03-06T21:24:12.326Z,43.24
2023-03-06T21:26:38.642Z,43.26
2023-03-06T21:29:04.987Z,43.45
2023-03-06T21:31:31.663Z,43.25
2023-03-06T21:33:58.848Z,43.14
2023-03-06T21:36:26.361Z,43.24
2023-03-06T21:38:53.052Z,43.26
2023-03-06T21:41:24.632Z,42.91
2023-03-06T21:43:55.184Z,43.27
2023-03-06T21:46:21.663Z,43.29
2023-03-06T21:48:48.132Z,43.52
2023-03-06T21:51:19.092Z,43.52
2023-03-06T21:53:46.103Z,43.14
2023-03-06T21:56:13.137Z,43.13
2023-03-06T21:58:39.609Z,43.73
2023-03-06T22:01:32.337Z,43.40
2023-03-06T22:04:00.190Z,43.18
2023-03-06T22:06:31.659Z,43.52
2023-03-06T22:08:58.795Z,43.56
2023-03-06T22:11:25.610Z,43.69
2023-03-06T22:13:53.210Z,43.65
2023-03-06T22:16:20.711Z,43.58
2023-03-06T22:18:48.305Z,43.60
2023-03-06T22:21:15.992Z,43.66
2023-03-06T22:23:42.304Z,43.34
2023-03-06T22:26:10.365Z,43.67
2023-03-06T22:28:37.088Z,43.46
2023-03-06T22:31:07.399Z,43.28
2023-03-06T22:33:33.988Z,43.46
2023-03-06T22:36:02.758Z,43.57
2023-03-06T22:38:29.059Z,43.72
2023-03-06T22:40:58.480Z,43.42
2023-03-06T22:43:24.696Z,43.80
2023-03-06T22:45:52.580Z,43.59
2023-03-06T22:48:19.633Z,43.65
2023-03-06T22:50:45.931Z,43.71
2023-03-06T22:53:12.324Z,43.43
2023-03-06T22:55:38.568Z,43.82
2023-03-06T22:58:04.796Z,43.84
2023-03-06T23:00:31.092Z,43.46
2023-03-06T23:02:57.555Z,43.59
2023-03-06T23:05:24.516Z,43.96
2023-03-06T23:07:51.298Z,43.83
2023-03-06T23:10:18.822Z,43.81
2023-03-06T23:12:45.318Z,43.97
2023-03-06T23:15:12.301Z,43.89
2023-03-06T23:17:38.593Z,44.11
2023-03-06T23:20:06.922Z,44.11
2023-03-06T23:22:33.182Z,43.75
2023-03-06T23:24:59.456Z,43.89
2023-03-06T23:27:25.701Z,44.20
2023-03-06T23:29:55.294Z,44.16
2023-03-06T23:32:21.789Z,44.08
2023-03-06T23:34:48.727Z,44.29
2023-03-06T23:37:14.992Z,44.26
2023-03-06T23:39:41.603Z,44.19
2023-03-06T23:42:08.988Z,44.15
2023-03-06T23:44:35.669Z,44.36
2023-03-06T23:47:02.074Z,44.52
2023-03-06T23:49:28.315Z,44.36
2023-03-06T23:51:54.773Z,44.14
2023-03-06T23:54:21.042Z,44.05
2023-03-06T23:56:47.249Z,44.25
2023-03-06T23:59:13.493Z,44.18
